Time;durP1;ratioP1;P1;durP2;ratioP2;P2;SDS_P1;SDS_P2;PMS_P1;PMS_P2;Temp;Humidity;BMP_temperature;BMP_pressure;BME280_temperature;BME280_humidity;BME280_pressure;Samples;Min_cycle;Max_cycle;Signal;HPM_P1;HPM_P2
2022/12/16 00:02:19;;;;;;;39.27;25.40;;;-1.70;99.90;;;;;;5038772;28;20403;-34
2022/12/16 00:04:45;;;;;;;39.20;25.50;;;-1.70;99.90;;;;;;5033106;28;20910;-34
2022/12/16 00:07:10;;;;;;;41.93;25.43;;;-1.50;99.90;;;;;;5027633;28;20225;-37
2022/12/16 00:09:36;;;;;;;45.10;26.57;;;-1.80;99.90;;;;;;5027626;28;20202;-32
2022/12/16 00:12:01;;;;;;;37.60;23.17;;;-1.90;99.90;;;;;;5038180;28;20274;-38
2022/12/16 00:14:28;;;;;;;38.40;23.97;;;-1.80;99.90;;;;;;5033808;28;20193;-39
2022/12/16 00:16:53;;;;;;;37.50;23.87;;;-1.80;99.90;;;;;;5028011;28;20452;-35
2022/12/16 00:19:19;;;;;;;35.47;23.83;;;-1.70;99.90;;;;;;5027185;28;21081;-33
2022/12/16 00:21:45;;;;;;;37.47;23.03;;;-1.60;99.90;;;;;;5028312;28;20464;-37
2022/12/16 00:24:10;;;;;;;48.40;24.30;;;-1.40;99.90;;;;;;5026280;28;20220;-34
2022/12/16 00:26:36;;;;;;;42.17;24.87;;;-1.70;99.90;;;;;;5028109;28;20549;-38
2022/12/16 00:29:04;;;;;;;38.50;23.60;;;-1.50;99.90;;;;;;5026294;28;20191;-36
2022/12/16 00:31:30;;;;;;;35.30;23.97;;;-1.50;99.90;;;;;;5028215;28;20447;-33
2022/12/16 00:33:56;;;;;;;40.50;25.00;;;-1.70;99.90;;;;;;5027131;28;20421;-35
2022/12/16 00:36:22;;;;;;;40.03;24.70;;;-1.60;99.90;;;;;;5028205;28;20771;-38
2022/12/16 00:38:50;;;;;;;37.93;24.00;;;-1.80;99.90;;;;;;5027224;28;20424;-35
2022/12/16 00:41:16;;;;;;;38.73;24.23;;;-2.20;99.90;;;;;;5028002;28;20211;-35
2022/12/16 00:43:42;;;;;;;43.63;24.83;;;-2.20;99.90;;;;;;5027156;28;20422;-33
2022/12/16 00:46:07;;;;;;;39.27;24.30;;;-2.10;99.90;;;;;;5027881;28;20183;-36
2022/12/16 00:48:33;;;;;;;37.30;22.57;;;-2.00;99.90;;;;;;5027050;28;20217;-37
2022/12/16 00:50:58;;;;;;;37.53;22.77;;;-2.10;99.90;;;;;;5029230;28;20285;-34
2022/12/16 00:53:24;;;;;;;37.90;23.23;;;-2.10;99.90;;;;;;5034915;28;20287;-35
2022/12/16 00:55:51;;;;;;;39.87;23.50;;;-2.00;99.90;;;;;;5051482;28;20174;-35
2022/12/16 00:58:17;;;;;;;36.27;23.27;;;-2.20;99.90;;;;;;5049952;28;20793;-34
2022/12/16 01:00:43;;;;;;;38.67;25.17;;;-2.20;99.90;;;;;;5051097;28;20419;-36
2022/12/16 01:03:08;;;;;;;35.70;22.60;;;-2.40;99.90;;;;;;5050577;28;20284;-37
2022/12/16 01:05:37;;;;;;;35.17;22.60;;;-2.10;99.90;;;;;;5049860;28;20450;-35
2022/12/16 01:08:02;;;;;;;40.17;23.00;;;-2.40;99.90;;;;;;5050487;28;20193;-33
2022/12/16 01:10:28;;;;;;;35.30;23.37;;;-2.40;99.90;;;;;;5049438;28;20444;-37
2022/12/16 01:12:54;;;;;;;41.87;22.70;;;-2.40;99.90;;;;;;5051234;28;20636;-37
2022/12/16 01:15:19;;;;;;;37.73;24.17;;;-2.10;99.90;;;;;;5051501;28;20192;-34
2022/12/16 01:17:45;;;;;;;36.43;24.27;;;-2.40;99.90;;;;;;5050675;28;20177;-36
2022/12/16 01:20:12;;;;;;;35.10;22.70;;;-2.40;99.90;;;;;;5049180;28;20181;-35
2022/12/16 01:22:37;;;;;;;39.37;24.33;;;-2.50;99.90;;;;;;5050795;28;20433;-37
2022/12/16 01:25:03;;;;;;;35.30;22.37;;;-2.40;99.90;;;;;;5050720;28;20394;-33
2022/12/16 01:27:29;;;;;;;34.23;22.47;;;-2.50;99.90;;;;;;5050754;28;20240;-33
2022/12/16 01:29:55;;;;;;;37.40;24.50;;;-2.30;99.90;;;;;;5030572;28;20885;-33
2022/12/16 01:32:21;;;;;;;35.90;23.57;;;-2.30;99.90;;;;;;5028970;28;20520;-33
2022/12/16 01:34:51;;;;;;;34.60;22.80;;;-2.20;99.90;;;;;;5037223;28;20669;-37
2022/12/16 01:37:17;;;;;;;39.27;22.50;;;-2.20;99.90;;;;;;5050684;28;20722;-39
2022/12/16 01:39:43;;;;;;;34.63;22.63;;;-2.10;99.90;;;;;;5050390;28;20387;-34
2022/12/16 01:42:13;;;;;;;32.67;22.87;;;-2.20;99.90;;;;;;5050484;28;20186;-38
2022/12/16 01:44:42;;;;;;;36.63;22.40;;;-2.10;99.90;;;;;;5050177;28;20190;-35
2022/12/16 01:47:17;;;;;;;43.27;23.90;;;-2.10;99.90;;;;;;5050460;28;20413;-32
2022/12/16 01:49:59;;;;;;;36.47;23.10;;;-2.40;99.90;;;;;;5050246;28;20427;-36
2022/12/16 01:52:32;;;;;;;39.83;22.50;;;-2.20;99.90;;;;;;5045228;28;20507;-38
2022/12/16 01:55:02;;;;;;;32.57;22.27;;;-2.10;99.90;;;;;;5043501;28;20427;-35
2022/12/16 01:57:39;;;;;;;39.07;23.70;;;-2.40;99.90;;;;;;5050108;28;20386;-38
2022/12/16 02:00:06;;;;;;;36.40;22.43;;;-2.20;99.90;;;;;;5035297;28;20392;-32
2022/12/16 02:02:32;;;;;;;38.43;21.60;;;-2.40;99.90;;;;;;5029237;28;20489;-37
2022/12/16 02:07:42;;;;;;;28.97;20.60;;;-2.60;99.90;;;;;;5029040;28;20391;-35
2022/12/16 02:10:10;;;;;;;36.10;22.03;;;-2.40;99.90;;;;;;5029988;28;20487;-32
2022/12/16 02:13:04;;;;;;;34.03;21.17;;;-2.60;99.90;;;;;;5028585;28;20681;-34
2022/12/16 02:16:04;;;;;;;31.57;20.13;;;-2.60;99.90;;;;;;5030327;28;20413;-38
2022/12/16 02:18:48;;;;;;;30.63;19.43;;;-2.40;99.90;;;;;;5029566;28;20385;-38
2022/12/16 02:21:29;;;;;;;29.17;18.80;;;-2.50;99.90;;;;;;5030170;28;21029;-36
2022/12/16 02:24:03;;;;;;;34.17;19.97;;;-2.50;99.90;;;;;;5029516;28;20433;-38
2022/12/16 02:26:38;;;;;;;32.67;20.17;;;-2.60;99.90;;;;;;5029764;28;20431;-37
2022/12/16 02:29:41;;;;;;;33.17;20.17;;;-2.50;99.90;;;;;;5043369;28;20754;-35
2022/12/16 02:32:22;;;;;;;32.43;19.50;;;-2.40;99.90;;;;;;5049726;28;20859;-33
2022/12/16 02:34:54;;;;;;;33.93;20.33;;;-2.50;99.90;;;;;;5049760;28;20383;-36
2022/12/16 02:37:35;;;;;;;33.27;20.17;;;-2.50;99.90;;;;;;5048208;28;20379;-36
2022/12/16 02:40:05;;;;;;;31.17;19.93;;;-2.30;99.90;;;;;;5049435;28;20439;-37
2022/12/16 02:42:39;;;;;;;32.77;20.50;;;-2.40;99.90;;;;;;5049451;28;20413;-32
2022/12/16 02:45:21;;;;;;;36.73;22.07;;;-2.30;99.90;;;;;;5049599;28;20473;-34
2022/12/16 02:47:47;;;;;;;31.90;20.57;;;-2.50;99.90;;;;;;5047722;28;20429;-33
2022/12/16 02:50:24;;;;;;;35.40;22.60;;;-2.30;99.90;;;;;;5049101;28;20410;-34
2022/12/16 02:52:53;;;;;;;30.70;21.37;;;-2.20;99.90;;;;;;5049242;28;20193;-32
2022/12/16 02:55:21;;;;;;;35.23;21.67;;;-2.30;99.90;;;;;;5049442;28;20463;-37
2022/12/16 02:58:12;;;;;;;36.77;21.70;;;-2.30;99.90;;;;;;5049027;28;20927;-38
2022/12/16 03:00:53;;;;;;;36.70;20.63;;;-2.40;99.90;;;;;;5047603;28;20443;-36
2022/12/16 03:03:46;;;;;;;39.80;21.40;;;-2.40;99.90;;;;;;5048864;28;20411;-36
2022/12/16 03:06:15;;;;;;;35.10;21.10;;;-2.50;99.90;;;;;;5049012;28;20419;-37
2022/12/16 03:08:46;;;;;;;32.57;22.50;;;-2.70;99.90;;;;;;5047614;28;20399;-38
2022/12/16 03:11:12;;;;;;;37.80;21.37;;;-2.60;99.90;;;;;;5049161;28;20503;-37
2022/12/16 03:13:43;;;;;;;35.20;22.40;;;-2.50;99.90;;;;;;5047843;28;20546;-35
2022/12/16 03:16:12;;;;;;;34.90;21.43;;;-2.70;99.90;;;;;;5048910;28;20182;-36
2022/12/16 03:18:42;;;;;;;36.10;22.80;;;-2.70;99.90;;;;;;5048547;28;20406;-35
2022/12/16 03:21:09;;;;;;;34.87;21.67;;;-2.80;99.90;;;;;;5048910;28;20466;-35
2022/12/16 03:23:59;;;;;;;32.73;20.70;;;-3.00;99.90;;;;;;5048517;28;20435;-36
2022/12/16 03:26:31;;;;;;;29.97;19.50;;;-2.80;99.90;;;;;;5045351;28;20462;-33
2022/12/16 03:29:13;;;;;;;32.80;18.73;;;-2.90;99.90;;;;;;5047913;28;20467;-34
2022/12/16 03:31:51;;;;;;;31.83;20.00;;;-2.90;99.90;;;;;;5048698;28;20452;-40
2022/12/16 03:34:42;;;;;;;30.87;19.37;;;-2.90;99.90;;;;;;5048241;28;20401;-39
2022/12/16 03:37:10;;;;;;;29.63;19.63;;;-2.60;99.90;;;;;;5048349;28;20749;-37
2022/12/16 03:39:53;;;;;;;27.87;18.93;;;-3.00;99.90;;;;;;5048055;28;20449;-38
2022/12/16 03:42:19;;;;;;;26.60;18.20;;;-2.80;99.90;;;;;;5048459;28;20420;-35
2022/12/16 03:44:45;;;;;;;27.27;19.00;;;-2.80;99.90;;;;;;5048136;28;20508;-40
2022/12/16 03:47:11;;;;;;;26.30;18.00;;;-2.80;99.90;;;;;;5048376;28;20220;-36
2022/12/16 03:49:37;;;;;;;28.20;17.00;;;-2.70;99.90;;;;;;5047822;28;20395;-37
2022/12/16 03:52:03;;;;;;;34.63;19.70;;;-2.90;99.90;;;;;;5047992;28;20456;-35
2022/12/16 03:54:29;;;;;;;28.60;17.57;;;-2.90;99.90;;;;;;5047933;28;20424;-36
2022/12/16 03:56:55;;;;;;;30.03;17.97;;;-2.70;99.90;;;;;;5048430;28;20412;-35
2022/12/16 03:59:21;;;;;;;24.73;16.13;;;-2.90;99.90;;;;;;5047833;28;20178;-35
2022/12/16 04:01:46;;;;;;;25.10;16.40;;;-2.60;99.90;;;;;;5047991;28;20452;-36
2022/12/16 04:04:12;;;;;;;22.27;15.00;;;-2.80;99.90;;;;;;5047516;28;20515;-33
2022/12/16 04:06:38;;;;;;;22.73;14.20;;;-2.70;99.90;;;;;;5047864;28;20713;-32
2022/12/16 04:09:03;;;;;;;26.20;15.87;;;-2.80;99.90;;;;;;5046690;28;20186;-35
2022/12/16 04:25:20;;;;;;;18.83;12.90;;;-2.50;99.90;;;;;;5047307;28;20407;-37
2022/12/16 04:27:46;;;;;;;21.47;12.73;;;-2.50;99.90;;;;;;5047822;28;20423;-35
2022/12/16 04:30:19;;;;;;;21.80;13.30;;;-2.60;99.90;;;;;;5047565;28;20831;-34
